Time;durP1;ratioP1;P1;durP2;ratioP2;P2;SDS_P1;SDS_P2;PMS_P1;PMS_P2;Temp;Humidity;BMP_temperature;BMP_pressure;BME280_temperature;BME280_humidity;BME280_pressure;Samples;Min_cycle;Max_cycle;Signal;HPM_P1;HPM_P2
2022/09/19 00:01:32;;;;;;;1.60;1.50;;;10.50;99.90;;;;;;5116335;28;20391;-74
2022/09/19 00:04:02;;;;;;;1.73;1.63;;;10.50;99.90;;;;;;5115818;28;20384;-75
2022/09/19 00:06:29;;;;;;;2.07;1.60;;;10.50;99.90;;;;;;5116284;28;20397;-74
2022/09/19 00:08:56;;;;;;;1.57;1.47;;;10.60;99.90;;;;;;5097959;28;20929;-74
2022/09/19 00:11:23;;;;;;;1.90;1.37;;;10.50;99.90;;;;;;5116091;28;20424;-76
2022/09/19 00:13:52;;;;;;;1.50;1.40;;;10.60;99.90;;;;;;5115435;28;20412;-75
2022/09/19 00:16:26;;;;;;;7.40;1.60;;;10.50;99.90;;;;;;5116054;28;20501;-74
2022/09/19 00:18:54;;;;;;;1.60;1.27;;;10.50;99.90;;;;;;5115433;28;20456;-74
2022/09/19 00:21:21;;;;;;;3.20;1.73;;;10.50;99.90;;;;;;5116256;28;20369;-75
2022/09/19 00:26:31;;;;;;;1.37;1.27;;;10.50;99.90;;;;;;5115789;28;20467;-75
2022/09/19 00:28:57;;;;;;;1.93;1.57;;;10.40;99.90;;;;;;5116112;28;20366;-74
2022/09/19 00:31:22;;;;;;;1.73;1.20;;;10.40;99.90;;;;;;5097650;28;20458;-75
2022/09/19 00:33:49;;;;;;;1.60;1.50;;;10.50;99.90;;;;;;5115261;28;20165;-74
2022/09/19 00:36:16;;;;;;;1.87;1.57;;;10.40;99.90;;;;;;5115640;28;20272;-75
2022/09/19 00:38:43;;;;;;;1.87;1.77;;;10.40;99.90;;;;;;5115922;28;20365;-74
2022/09/19 00:41:16;;;;;;;1.70;1.60;;;10.30;99.90;;;;;;5115760;28;20378;-74
2022/09/19 00:43:49;;;;;;;1.50;1.40;;;10.40;99.90;;;;;;5114994;28;20849;-75
2022/09/19 00:46:16;;;;;;;2.23;2.00;;;10.30;99.90;;;;;;5097224;28;20429;-74
2022/09/19 00:48:45;;;;;;;1.30;1.20;;;10.30;99.90;;;;;;5115420;28;20854;-75
2022/09/19 00:51:18;;;;;;;1.60;1.50;;;10.30;99.90;;;;;;5115485;28;20772;-74
2022/09/19 00:53:46;;;;;;;2.30;1.50;;;10.30;99.90;;;;;;5096657;28;20382;-74
2022/09/19 00:56:15;;;;;;;8.83;1.50;;;10.30;99.90;;;;;;5115123;28;20434;-74
2022/09/19 00:58:44;;;;;;;2.83;1.53;;;10.30;99.90;;;;;;5097152;28;20449;-75
2022/09/19 01:01:13;;;;;;;2.03;1.60;;;10.30;99.90;;;;;;5115345;28;20378;-74
2022/09/19 01:03:39;;;;;;;2.13;1.50;;;10.30;99.90;;;;;;5114461;28;20474;-74
2022/09/19 01:06:15;;;;;;;1.40;1.30;;;10.30;99.90;;;;;;5115019;28;20464;-75
2022/09/19 01:09:08;;;;;;;2.30;1.63;;;10.30;99.90;;;;;;5115115;28;20741;-74
2022/09/19 01:11:43;;;;;;;2.00;1.80;;;10.20;99.90;;;;;;5114891;28;20483;-74
2022/09/19 01:14:13;;;;;;;1.67;1.40;;;10.20;99.90;;;;;;5114289;28;20406;-74
2022/09/19 01:16:50;;;;;;;6.53;1.43;;;10.20;99.90;;;;;;5114894;28;20703;-74
2022/09/19 01:19:37;;;;;;;3.10;1.40;;;10.20;99.90;;;;;;5114924;28;20402;-74
2022/09/19 01:22:11;;;;;;;1.53;1.43;;;10.20;99.90;;;;;;5114792;28;20377;-74
2022/09/19 01:24:56;;;;;;;1.43;1.33;;;10.10;99.90;;;;;;5114121;28;20373;-74
2022/09/19 01:27:52;;;;;;;1.50;1.40;;;10.10;99.90;;;;;;5114832;28;20361;-74
2022/09/19 01:30:18;;;;;;;2.53;1.53;;;10.10;99.90;;;;;;5095696;28;20496;-74
2022/09/19 01:33:10;;;;;;;2.20;2.03;;;10.00;99.90;;;;;;5114715;28;20495;-74
2022/09/19 01:35:39;;;;;;;1.97;1.60;;;10.00;99.90;;;;;;5113994;28;20257;-74
2022/09/19 01:38:15;;;;;;;3.10;1.40;;;9.90;99.90;;;;;;5114571;28;20396;-74
2022/09/19 01:40:43;;;;;;;2.33;1.60;;;9.90;99.90;;;;;;5114674;28;20406;-74
2022/09/19 01:43:16;;;;;;;3.63;1.83;;;9.90;99.90;;;;;;5114431;28;20485;-74
2022/09/19 01:45:43;;;;;;;1.63;1.53;;;9.90;99.90;;;;;;5113836;28;20408;-74
2022/09/19 01:48:15;;;;;;;1.60;1.50;;;9.90;99.90;;;;;;5114359;28;20946;-74
2022/09/19 01:51:01;;;;;;;1.60;1.50;;;9.90;99.90;;;;;;5114362;28;20381;-75
2022/09/19 01:54:00;;;;;;;1.70;1.60;;;9.80;99.90;;;;;;5114094;28;20383;-76
2022/09/19 01:57:06;;;;;;;1.80;1.70;;;9.80;99.90;;;;;;5114041;28;20900;-75
2022/09/19 01:59:41;;;;;;;2.10;1.60;;;9.80;99.90;;;;;;5114162;28;20394;-76
2022/09/19 02:02:22;;;;;;;1.43;1.33;;;9.80;99.90;;;;;;5114234;28;20408;-74
2022/09/19 02:04:58;;;;;;;1.60;1.50;;;9.80;99.90;;;;;;5113398;28;20780;-74
2022/09/19 02:07:44;;;;;;;2.00;1.40;;;9.70;99.90;;;;;;5114098;28;20379;-74
2022/09/19 02:10:32;;;;;;;2.80;1.40;;;9.70;99.90;;;;;;5113939;28;20391;-75
2022/09/19 02:13:03;;;;;;;2.23;1.77;;;9.70;99.90;;;;;;5113826;28;20428;-74
2022/09/19 02:15:32;;;;;;;2.30;1.70;;;9.70;99.90;;;;;;5113203;28;20745;-74
2022/09/19 02:18:29;;;;;;;3.50;2.00;;;9.70;99.90;;;;;;5114240;28;20448;-74
2022/09/19 02:21:03;;;;;;;2.30;1.60;;;9.70;99.90;;;;;;5113339;28;20406;-74
2022/09/19 02:23:31;;;;;;;2.67;1.63;;;9.70;99.90;;;;;;5113981;28;20928;-75
2022/09/19 02:26:01;;;;;;;1.70;1.30;;;9.70;99.90;;;;;;5113212;28;20397;-74
2022/09/19 02:28:38;;;;;;;2.80;2.03;;;9.70;99.90;;;;;;5113987;28;20455;-76
2022/09/19 02:31:05;;;;;;;6.60;1.70;;;9.70;99.90;;;;;;5113878;28;20420;-74
2022/09/19 02:33:34;;;;;;;1.70;1.60;;;9.70;99.90;;;;;;5113625;28;20707;-74
2022/09/19 02:36:13;;;;;;;4.20;1.67;;;9.70;99.90;;;;;;5113377;28;20418;-74
2022/09/19 02:39:02;;;;;;;1.53;1.43;;;9.60;99.90;;;;;;5113812;28;20371;-74
2022/09/19 02:41:52;;;;;;;1.80;1.20;;;9.60;99.90;;;;;;5114763;28;20936;-74
2022/09/19 02:44:39;;;;;;;1.47;1.37;;;9.60;99.90;;;;;;5117511;28;20401;-74
2022/09/19 02:47:26;;;;;;;4.80;2.10;;;9.60;99.90;;;;;;5117940;28;20385;-74
2022/09/19 02:50:01;;;;;;;1.60;1.50;;;9.60;99.90;;;;;;5117915;28;20405;-74
2022/09/19 02:52:30;;;;;;;3.83;1.20;;;9.60;99.90;;;;;;5117851;28;20451;-74
2022/09/19 02:55:03;;;;;;;1.77;1.63;;;9.50;99.90;;;;;;5116902;28;20726;-74
2022/09/19 02:57:31;;;;;;;2.80;1.40;;;9.50;99.90;;;;;;5117551;28;20395;-74
2022/09/19 03:00:01;;;;;;;1.57;1.47;;;9.50;99.90;;;;;;5099524;28;20430;-74
2022/09/19 03:02:34;;;;;;;1.50;1.30;;;9.50;99.90;;;;;;5099289;28;20417;-74
2022/09/19 03:05:10;;;;;;;1.70;1.40;;;9.50;99.90;;;;;;5116670;28;20738;-74
2022/09/19 03:07:51;;;;;;;1.63;1.50;;;9.50;99.90;;;;;;5117682;28;20405;-74
2022/09/19 03:10:24;;;;;;;1.50;1.40;;;9.50;99.90;;;;;;5117537;28;20521;-74
2022/09/19 03:13:01;;;;;;;1.40;1.30;;;9.50;99.90;;;;;;5117328;28;20418;-74
2022/09/19 03:15:51;;;;;;;2.87;1.37;;;9.50;99.90;;;;;;5098286;28;20413;-74
2022/09/19 03:18:18;;;;;;;1.73;1.50;;;9.50;99.90;;;;;;5105240;28;20389;-74
2022/09/19 03:21:02;;;;;;;3.20;1.20;;;9.50;99.90;;;;;;5117233;28;20373;-74
2022/09/19 03:23:32;;;;;;;1.40;1.30;;;9.50;99.90;;;;;;5117197;28;20373;-74
2022/09/19 03:25:58;;;;;;;1.30;1.20;;;9.60;99.90;;;;;;5116672;28;20501;-74
2022/09/19 03:28:24;;;;;;;2.47;1.70;;;9.60;99.90;;;;;;5117152;28;20912;-74
2022/09/19 03:30:49;;;;;;;1.73;1.63;;;9.70;99.90;;;;;;5115499;28;20176;-74
2022/09/19 03:33:16;;;;;;;1.40;1.30;;;9.70;99.90;;;;;;5116147;28;20640;-73
2022/09/19 03:35:43;;;;;;;1.40;1.30;;;9.80;99.90;;;;;;5115560;28;20193;-74
2022/09/19 03:38:10;;;;;;;1.80;1.70;;;9.80;99.90;;;;;;5116283;28;20397;-74
2022/09/19 03:40:37;;;;;;;6.90;1.53;;;9.80;99.90;;;;;;5097778;28;20418;-73
2022/09/19 03:43:04;;;;;;;2.13;1.60;;;9.90;99.90;;;;;;5116374;28;20476;-74
2022/09/19 03:45:29;;;;;;;2.20;1.40;;;9.90;99.90;;;;;;5115830;28;20450;-73
2022/09/19 03:47:56;;;;;;;1.50;1.40;;;9.90;99.90;;;;;;5116429;28;20904;-74
2022/09/19 03:50:23;;;;;;;1.50;1.40;;;9.90;99.90;;;;;;5098094;28;20223;-74
2022/09/19 03:52:49;;;;;;;1.50;1.40;;;9.90;99.90;;;;;;5115282;28;20425;-73
2022/09/19 03:55:15;;;;;;;2.13;1.40;;;9.90;99.90;;;;;;5115226;28;20423;-74
2022/09/19 03:57:41;;;;;;;2.77;1.57;;;9.90;99.90;;;;;;5097933;28;20417;-73
2022/09/19 04:00:07;;;;;;;3.60;1.57;;;9.90;99.90;;;;;;5116342;28;20373;-74
2022/09/19 04:02:34;;;;;;;2.17;1.50;;;9.90;99.90;;;;;;5116080;28;20176;-73
2022/09/19 04:05:01;;;;;;;1.77;1.67;;;9.80;99.90;;;;;;5115369;28;20408;-73
2022/09/19 04:07:27;;;;;;;1.50;1.20;;;9.80;99.90;;;;;;5097793;28;20463;-74
2022/09/19 04:09:56;;;;;;;1.77;1.67;;;9.70;99.90;;;;;;5115954;28;20407;-73
2022/09/19 04:12:23;;;;;;;2.53;2.07;;;9.80;99.90;;;;;;5115686;28;20931;-74
2022/09/19 04:14:49;;;;;;;4.73;1.90;;;9.70;99.90;;;;;;5115363;28;20393;-74
2022/09/19 04:17:15;;;;;;;1.80;1.40;;;9.60;99.90;;;;;;5115693;28;20378;-74
2022/09/19 04:19:42;;;;;;;2.40;1.43;;;9.60;99.90;;;;;;5115691;28;20755;-74
2022/09/19 04:22:08;;;;;;;1.60;1.50;;;9.60;99.90;;;;;;5115745;28;21004;-74
2022/09/19 04:24:34;;;;;;;1.20;1.10;;;9.60;99.90;;;;;;5114926;28;20387;-73
2022/09/19 04:27:06;;;;;;;1.50;1.10;;;9.60;99.90;;;;;;5115583;28;20871;-74
2022/09/19 04:29:32;;;;;;;2.13;1.73;;;9.50;99.90;;;;;;5114817;28;20173;-74
2022/09/19 04:32:01;;;;;;;1.80;1.70;;;9.50;99.90;;;;;;5097170;28;20440;-73
2022/09/19 04:34:28;;;;;;;1.30;1.20;;;9.40;99.90;;;;;;5114791;28;20415;-74
2022/09/19 04:36:53;;;;;;;1.50;1.40;;;9.40;99.90;;;;;;5115516;28;20372;-76
2022/09/19 04:39:19;;;;;;;8.63;1.13;;;9.40;99.90;;;;;;5115438;28;20376;-75
2022/09/19 04:41:45;;;;;;;1.67;1.40;;;9.40;99.90;;;;;;5115235;28;20180;-74
2022/09/19 04:44:10;;;;;;;2.30;1.63;;;9.40;99.90;;;;;;5114715;28;20176;-75
2022/09/19 04:46:41;;;;;;;2.07;1.50;;;9.40;99.90;;;;;;5114866;28;20555;-74
2022/09/19 04:49:07;;;;;;;2.60;1.43;;;9.40;99.90;;;;;;5115214;28;20172;-76
2022/09/19 04:51:33;;;;;;;2.60;1.37;;;9.40;99.90;;;;;;5115090;28;20927;-77
2022/09/19 04:53:59;;;;;;;1.50;1.40;;;9.40;99.90;;;;;;5114392;28;20496;-74
2022/09/19 04:56:26;;;;;;;2.33;2.13;;;9.40;99.90;;;;;;5114835;28;20196;-74
2022/09/19 04:58:52;;;;;;;2.03;1.20;;;9.30;99.90;;;;;;5114980;28;20405;-75
2022/09/19 05:01:18;;;;;;;3.77;1.30;;;9.30;99.90;;;;;;5114955;28;20794;-73
2022/09/19 05:03:43;;;;;;;1.67;1.57;;;9.30;99.90;;;;;;5095679;28;20200;-74
2022/09/19 05:06:11;;;;;;;1.20;1.10;;;9.40;99.90;;;;;;5114854;28;20201;-73
2022/09/19 05:08:37;;;;;;;2.40;1.47;;;9.40;99.90;;;;;;5114836;28;20218;-72
2022/09/19 05:11:05;;;;;;;1.67;1.50;;;9.40;99.90;;;;;;5096399;28;20432;-73
2022/09/19 05:13:33;;;;;;;5.10;1.50;;;9.40;99.90;;;;;;5114615;28;20410;-73
2022/09/19 05:16:00;;;;;;;1.80;1.70;;;9.40;99.90;;;;;;5095789;28;20491;-73
2022/09/19 05:18:27;;;;;;;2.17;1.90;;;9.40;99.90;;;;;;5114517;28;20744;-74
2022/09/19 05:20:54;;;;;;;4.00;1.60;;;9.40;99.90;;;;;;5114325;28;20377;-74
2022/09/19 05:23:24;;;;;;;3.87;1.70;;;9.50;99.90;;;;;;5114363;28;20423;-74
2022/09/19 05:25:54;;;;;;;3.63;1.80;;;9.50;99.90;;;;;;5113760;28;20460;-74
2022/09/19 05:28:23;;;;;;;1.63;1.33;;;9.50;99.90;;;;;;5114356;28;20376;-73
2022/09/19 05:30:55;;;;;;;3.67;1.30;;;9.60;99.90;;;;;;5114389;28;20403;-73
2022/09/19 05:33:29;;;;;;;4.80;1.77;;;9.70;99.90;;;;;;5114320;28;20377;-74
2022/09/19 05:35:55;;;;;;;5.70;2.80;;;9.80;99.90;;;;;;5113390;28;20529;-76
2022/09/19 05:38:22;;;;;;;6.47;2.27;;;9.80;99.90;;;;;;5114186;28;20884;-74
2022/09/19 05:40:54;;;;;;;3.13;2.00;;;9.90;99.90;;;;;;5114321;28;20407;-73
2022/09/19 05:43:20;;;;;;;3.50;1.50;;;10.00;99.90;;;;;;5114138;28;20468;-75
2022/09/19 05:45:46;;;;;;;2.30;1.50;;;10.00;99.90;;;;;;5113487;28;20510;-73
2022/09/19 05:48:13;;;;;;;2.80;1.83;;;10.10;99.90;;;;;;5113925;28;20407;-74
2022/09/19 05:50:42;;;;;;;2.17;1.97;;;10.10;99.90;;;;;;5113997;28;20385;-73
2022/09/19 05:55:53;;;;;;;1.90;1.70;;;10.10;99.90;;;;;;5113326;28;20486;-74
2022/09/19 05:58:19;;;;;;;8.83;2.30;;;10.10;99.90;;;;;;5113822;28;20377;-74
2022/09/19 06:00:45;;;;;;;8.03;2.70;;;10.10;99.90;;;;;;5113964;28;20252;-73
2022/09/19 06:03:16;;;;;;;2.07;1.83;;;10.10;99.90;;;;;;5113931;28;20406;-73
2022/09/19 06:05:45;;;;;;;8.10;2.40;;;10.20;99.90;;;;;;5113042;28;20397;-73
2022/09/19 06:08:11;;;;;;;5.53;2.33;;;10.20;99.90;;;;;;5113736;28;20370;-74
2022/09/19 06:10:40;;;;;;;6.87;2.20;;;10.20;99.90;;;;;;5113635;28;20402;-73
2022/09/19 06:13:17;;;;;;;5.60;2.30;;;10.30;99.90;;;;;;5095080;28;20433;-73
2022/09/19 06:15:43;;;;;;;3.87;1.57;;;10.30;99.90;;;;;;5112545;28;20451;-73
2022/09/19 06:18:09;;;;;;;3.63;1.90;;;10.30;99.90;;;;;;5113472;28;20468;-74
2022/09/19 06:20:36;;;;;;;3.60;1.80;;;10.40;99.90;;;;;;5113655;28;20405;-73
2022/09/19 06:23:04;;;;;;;3.70;1.90;;;10.50;99.90;;;;;;5113554;28;20410;-74
2022/09/19 06:25:31;;;;;;;8.00;2.70;;;10.60;99.90;;;;;;5112974;28;20437;-74
2022/09/19 06:27:59;;;;;;;3.87;2.03;;;10.70;99.90;;;;;;5113552;28;20402;-72
2022/09/19 06:30:25;;;;;;;7.90;1.97;;;10.80;1.00;;;;;;5113220;28;20377;-74
2022/09/19 06:32:52;;;;;;;2.20;2.00;;;10.90;1.00;;;;;;5113205;28;20469;-73
2022/09/19 06:35:19;;;;;;;5.77;1.90;;;11.00;1.00;;;;;;5112803;28;20820;-73
2022/09/19 06:37:45;;;;;;;7.00;2.00;;;11.20;1.00;;;;;;5113392;28;20912;-73
2022/09/19 06:40:11;;;;;;;7.40;2.70;;;11.30;1.00;;;;;;5095114;28;20385;-74
2022/09/19 06:42:36;;;;;;;6.17;1.70;;;11.40;1.00;;;;;;5095152;28;20952;-74
2022/09/19 06:45:05;;;;;;;7.10;1.77;;;11.40;1.00;;;;;;5112671;28;20693;-73
2022/09/19 06:47:31;;;;;;;6.20;2.00;;;11.40;1.00;;;;;;5113370;28;20222;-74
2022/09/19 06:50:00;;;;;;;8.43;2.17;;;11.40;1.00;;;;;;5113217;28;20406;-73
2022/09/19 06:52:26;;;;;;;8.60;1.93;;;11.50;1.00;;;;;;5113129;28;20216;-74
2022/09/19 06:54:52;;;;;;;8.97;2.90;;;11.50;1.00;;;;;;5094408;28;20458;-74
2022/09/19 06:57:18;;;;;;;4.87;1.70;;;11.70;1.00;;;;;;5113200;28;20402;-74
2022/09/19 06:59:43;;;;;;;7.33;5.40;;;11.70;1.00;;;;;;5113186;28;20962;-73
2022/09/19 07:02:10;;;;;;;6.83;3.87;;;11.70;1.00;;;;;;5113346;28;20575;-73
2022/09/19 07:04:36;;;;;;;9.10;2.13;;;11.80;1.00;;;;;;5112133;28;20184;-73
2022/09/19 07:07:02;;;;;;;9.63;2.13;;;11.80;1.00;;;;;;5113032;28;20890;-73
2022/09/19 07:09:28;;;;;;;4.27;2.00;;;11.90;1.00;;;;;;5113232;28;20177;-74
2022/09/19 07:11:56;;;;;;;4.17;1.57;;;12.00;1.00;;;;;;5113045;28;20960;-74
2022/09/19 07:14:23;;;;;;;3.37;1.90;;;12.00;1.00;;;;;;5112231;28;20161;-73
2022/09/19 07:16:49;;;;;;;3.13;1.60;;;12.10;1.00;;;;;;5113060;28;20890;-74
2022/09/19 07:19:15;;;;;;;3.20;1.43;;;12.20;1.00;;;;;;5113023;28;20380;-73
2022/09/19 07:21:41;;;;;;;3.77;1.00;;;12.20;1.00;;;;;;5113060;28;20187;-73
2022/09/19 07:24:07;;;;;;;5.53;2.17;;;12.30;1.00;;;;;;5112493;28;20395;-73
2022/09/19 07:26:36;;;;;;;4.63;1.50;;;12.40;1.00;;;;;;5112005;28;20466;-73
2022/09/19 07:29:04;;;;;;;3.67;1.73;;;12.60;1.00;;;;;;5114621;28;21150;-73
2022/09/19 07:31:32;;;;;;;2.03;1.73;;;12.60;1.00;;;;;;5100669;28;20454;-73
2022/09/19 07:33:58;;;;;;;9.00;2.60;;;12.70;1.00;;;;;;5095374;28;20396;-73
2022/09/19 07:36:24;;;;;;;5.93;1.70;;;12.80;1.00;;;;;;5097277;28;20431;-74
2022/09/19 07:38:50;;;;;;;3.73;1.70;;;12.80;99.90;;;;;;5096261;28;20173;-73
2022/09/19 07:41:17;;;;;;;2.37;1.30;;;12.90;99.90;;;;;;5108511;28;20414;-74
2022/09/19 07:43:44;;;;;;;4.10;2.50;;;13.00;99.90;;;;;;5095459;28;20406;-75
2022/09/19 07:46:14;;;;;;;5.10;2.10;;;13.10;99.90;;;;;;5095851;28;20484;-73
2022/09/19 07:48:42;;;;;;;5.77;2.37;;;13.10;99.90;;;;;;5095750;28;20400;-75
2022/09/19 07:51:08;;;;;;;4.70;1.60;;;13.10;99.90;;;;;;5095612;28;20427;-74
2022/09/19 07:53:34;;;;;;;1.70;1.37;;;13.20;99.90;;;;;;5095681;28;20896;-73
2022/09/19 07:56:01;;;;;;;5.80;1.47;;;13.20;99.90;;;;;;5094633;28;20465;-74
2022/09/19 07:58:28;;;;;;;3.90;1.63;;;13.30;99.90;;;;;;5095978;28;20395;-73
2022/09/19 08:01:00;;;;;;;2.63;1.50;;;13.30;99.90;;;;;;5094594;28;20880;-74
2022/09/19 08:03:26;;;;;;;4.73;1.67;;;13.30;99.90;;;;;;5115166;28;20746;-75
2022/09/19 08:05:54;;;;;;;2.70;1.40;;;13.50;99.90;;;;;;5098656;28;20859;-74
2022/09/19 08:08:22;;;;;;;5.03;1.60;;;13.60;99.90;;;;;;5095756;28;20441;-74
2022/09/19 08:10:48;;;;;;;6.57;1.90;;;13.60;99.90;;;;;;5095949;28;20455;-73
2022/09/19 08:13:35;;;;;;;2.63;1.30;;;13.70;99.90;;;;;;5095463;28;20408;-74
2022/09/19 08:16:01;;;;;;;5.73;1.60;;;13.70;99.90;;;;;;5094876;28;20423;-73
2022/09/19 08:18:28;;;;;;;5.27;1.83;;;13.80;99.90;;;;;;5095641;28;20395;-73
2022/09/19 08:20:55;;;;;;;4.17;1.73;;;14.00;99.90;;;;;;5094781;28;20150;-73
2022/09/19 08:23:21;;;;;;;7.83;1.10;;;14.00;99.90;;;;;;5076918;28;20412;-74
2022/09/19 08:25:48;;;;;;;1.90;1.27;;;14.10;99.90;;;;;;5076705;28;20769;-73
2022/09/19 08:28:16;;;;;;;3.53;1.60;;;14.20;99.90;;;;;;5095158;28;20498;-73
2022/09/19 08:30:43;;;;;;;5.23;1.53;;;14.40;99.90;;;;;;5095159;28;20461;-73
2022/09/19 08:33:10;;;;;;;3.30;1.17;;;14.50;99.90;;;;;;5095092;28;20457;-74
2022/09/19 08:35:39;;;;;;;3.17;1.37;;;14.60;99.90;;;;;;5094295;28;20972;-73
2022/09/19 08:38:11;;;;;;;3.30;1.30;;;14.70;99.90;;;;;;5094877;28;20392;-74
2022/09/19 08:41:15;;;;;;;3.20;1.30;;;14.90;99.90;;;;;;5094177;28;20756;-75
2022/09/19 08:44:20;;;;;;;2.77;1.10;;;15.00;99.90;;;;;;5076574;28;20969;-74
2022/09/19 08:46:55;;;;;;;4.03;2.23;;;15.20;99.90;;;;;;5094873;28;20418;-73
2022/09/19 08:49:28;;;;;;;3.00;1.57;;;15.40;99.90;;;;;;5094790;28;20411;-74
2022/09/19 08:52:13;;;;;;;7.53;1.47;;;15.50;99.90;;;;;;5094632;28;20538;-73
2022/09/19 08:54:45;;;;;;;3.20;1.50;;;15.70;99.90;;;;;;5093679;28;20410;-72
2022/09/19 09:14:50;;;;;;;4.47;1.30;;;16.60;99.90;;;;;;4955661;28;20785;-74
2022/09/19 09:24:44;;;;;;;1.33;0.70;;;17.40;65.60;;;;;;4991157;28;20420;-73
2022/09/19 09:30:47;;;;;;;3.10;0.80;;;18.10;41.50;;;;;;5103367;28;20496;-73
2022/09/19 09:33:29;;;;;;;6.63;0.90;;;18.40;14.50;;;;;;5093813;28;20955;-73
2022/09/19 09:36:02;;;;;;;2.40;0.80;;;18.70;8.80;;;;;;5107085;28;20934;-74
2022/09/19 09:38:40;;;;;;;2.13;0.80;;;18.80;1.00;;;;;;5113770;28;20402;-73
2022/09/19 09:44:23;;;;;;;1.13;0.77;;;18.80;1.00;;;;;;5093031;28;20415;-74
2022/09/19 09:47:26;;;;;;;3.23;1.00;;;18.80;1.00;;;;;;5093871;28;20740;-74
2022/09/19 09:49:58;;;;;;;2.27;1.17;;;19.00;1.00;;;;;;5101071;28;20413;-73
2022/09/19 09:52:41;;;;;;;3.40;2.10;;;19.20;1.00;;;;;;5113162;28;20442;-75
2022/09/19 09:58:28;;;;;;;5.43;3.80;;;19.80;1.00;;;;;;5093327;28;20449;-72
2022/09/19 10:04:30;;;;;;;1.87;0.93;;;20.10;1.00;;;;;;5083008;28;20446;-73
2022/09/19 10:07:13;;;;;;;1.70;1.20;;;20.20;1.00;;;;;;5093125;28;20443;-73
2022/09/19 10:10:03;;;;;;;3.73;0.90;;;20.30;1.00;;;;;;5094407;28;20468;-74
2022/09/19 10:12:38;;;;;;;2.90;0.80;;;20.40;1.00;;;;;;5093352;28;20447;-71
2022/09/19 10:15:13;;;;;;;1.10;0.60;;;20.50;1.00;;;;;;5091863;28;20522;-74
2022/09/19 10:17:45;;;;;;;2.43;0.97;;;20.60;1.00;;;;;;5093215;28;20403;-73
2022/09/19 10:20:18;;;;;;;2.80;0.70;;;20.70;1.00;;;;;;5093252;28;20427;-74
2022/09/19 10:22:44;;;;;;;1.00;0.70;;;20.80;1.00;;;;;;5093358;28;20461;-73
2022/09/19 10:25:16;;;;;;;2.50;0.70;;;21.20;1.00;;;;;;5092705;28;20422;-72
2022/09/19 10:27:42;;;;;;;1.03;0.70;;;21.70;1.00;;;;;;5093207;28;20411;-71
2022/09/19 10:30:23;;;;;;;5.67;0.80;;;21.80;1.00;;;;;;5093063;28;20403;-73
2022/09/19 10:32:50;;;;;;;1.10;0.70;;;21.90;1.00;;;;;;5092547;28;20447;-74
2022/09/19 10:35:25;;;;;;;1.00;0.70;;;22.00;1.00;;;;;;5092415;28;20408;-73
2022/09/19 10:38:05;;;;;;;1.00;0.70;;;22.10;1.00;;;;;;5093187;28;20449;-73
2022/09/19 10:40:58;;;;;;;1.03;0.60;;;22.10;1.00;;;;;;5092974;28;20392;-75
2022/09/19 10:43:31;;;;;;;1.87;0.77;;;22.40;1.00;;;;;;5093044;28;20449;-72
2022/09/19 10:46:06;;;;;;;1.07;0.57;;;22.40;1.00;;;;;;5092641;28;20443;-75
2022/09/19 10:48:38;;;;;;;0.80;0.50;;;21.60;1.00;;;;;;5093034;28;20840;-73
2022/09/19 10:51:09;;;;;;;1.30;0.70;;;21.00;1.00;;;;;;5092888;28;20491;-74
2022/09/19 10:53:39;;;;;;;1.00;0.70;;;20.40;1.00;;;;;;5092143;28;20790;-72
2022/09/19 10:56:11;;;;;;;1.30;0.73;;;20.00;1.00;;;;;;5092726;28;20439;-73
2022/09/19 10:58:43;;;;;;;0.80;0.60;;;19.40;1.00;;;;;;5092861;28;20410;-73
2022/09/19 11:01:25;;;;;;;2.37;0.83;;;19.10;1.00;;;;;;5092869;28;20751;-74
2022/09/19 11:04:02;;;;;;;1.47;0.70;;;19.20;1.00;;;;;;5095656;28;20483;-71
2022/09/19 11:06:29;;;;;;;0.90;0.60;;;19.40;1.00;;;;;;5096860;28;20411;-72
2022/09/19 11:09:33;;;;;;;0.80;0.50;;;19.50;1.00;;;;;;5096705;28;20404;-75
2022/09/19 11:12:14;;;;;;;2.17;0.77;;;19.40;1.00;;;;;;5096428;28;20438;-75
2022/09/19 11:14:43;;;;;;;1.93;0.90;;;19.40;1.00;;;;;;5095849;28;20465;-75
2022/09/19 11:17:33;;;;;;;2.30;0.70;;;19.20;1.00;;;;;;5096665;28;20907;-75
2022/09/19 11:20:30;;;;;;;1.00;0.70;;;19.00;1.00;;;;;;5096664;28;20478;-75
2022/09/19 11:23:07;;;;;;;2.03;0.70;;;18.70;1.00;;;;;;5096592;28;20516;-75
2022/09/19 11:25:48;;;;;;;1.37;0.60;;;18.60;1.00;;;;;;5095751;28;20783;-73
2022/09/19 11:28:38;;;;;;;1.63;1.53;;;18.40;1.00;;;;;;5096473;28;20429;-73
2022/09/19 11:31:33;;;;;;;1.77;0.60;;;18.30;1.00;;;;;;5095794;28;20494;-75
2022/09/19 11:34:27;;;;;;;1.00;0.70;;;18.50;1.00;;;;;;5095815;28;20398;-76
2022/09/19 11:37:25;;;;;;;1.73;0.87;;;18.70;1.00;;;;;;5096166;28;20407;-73
2022/09/19 11:40:19;;;;;;;1.00;0.70;;;18.80;1.00;;;;;;5096425;28;20391;-69
2022/09/19 11:43:02;;;;;;;0.90;0.70;;;18.70;1.00;;;;;;5096248;28;20446;-74
2022/09/19 11:45:50;;;;;;;1.10;0.80;;;18.60;1.00;;;;;;5095474;28;20451;-76
2022/09/19 11:48:46;;;;;;;1.10;0.60;;;18.80;1.00;;;;;;5095822;28;20839;-72
2022/09/19 11:51:28;;;;;;;2.90;0.60;;;18.90;1.00;;;;;;5095635;28;20407;-74
2022/09/19 11:54:31;;;;;;;0.80;0.60;;;19.10;1.00;;;;;;5095536;28;20400;-76
2022/09/19 12:00:20;;;;;;;1.60;0.67;;;18.60;1.00;;;;;;5032236;28;20931;-72
2022/09/19 12:03:02;;;;;;;2.13;0.80;;;18.50;1.00;;;;;;5095732;28;20411;-73
2022/09/19 12:05:53;;;;;;;2.33;0.73;;;18.00;1.00;;;;;;5094997;28;20795;-76
2022/09/19 12:08:46;;;;;;;1.17;0.63;;;17.80;1.00;;;;;;5077130;28;20926;-72
2022/09/19 12:11:21;;;;;;;0.80;0.60;;;17.90;1.00;;;;;;5095535;28;20424;-75
2022/09/19 12:13:59;;;;;;;0.90;0.80;;;18.00;1.00;;;;;;5094286;28;20418;-72
2022/09/19 12:16:41;;;;;;;14.37;6.57;;;18.00;1.00;;;;;;5095507;28;20971;-75
2022/09/19 12:19:25;;;;;;;5.43;2.97;;;17.70;1.00;;;;;;5095448;28;20403;-73
2022/09/19 12:21:57;;;;;;;1.10;0.77;;;17.60;1.00;;;;;;5095572;28;20502;-76
2022/09/19 12:27:23;;;;;;;0.90;0.60;;;17.30;1.00;;;;;;5095630;28;20422;-75
2022/09/19 12:29:59;;;;;;;3.10;0.90;;;17.60;1.00;;;;;;5095243;28;20497;-72
2022/09/19 12:32:25;;;;;;;0.90;0.60;;;17.60;1.00;;;;;;5095163;28;20478;-72
2022/09/19 12:35:12;;;;;;;1.50;0.80;;;17.40;1.00;;;;;;5094321;28;20428;-75
2022/09/19 12:38:02;;;;;;;2.27;0.70;;;17.50;1.00;;;;;;5094930;28;20403;-75
2022/09/19 12:40:53;;;;;;;1.30;0.70;;;17.70;1.00;;;;;;5095181;28;20396;-75
2022/09/19 12:43:32;;;;;;;1.10;0.60;;;17.70;1.00;;;;;;5094416;28;20959;-73
2022/09/19 12:45:57;;;;;;;0.90;0.60;;;17.80;1.00;;;;;;5094456;28;20422;-75
2022/09/19 12:48:47;;;;;;;1.23;0.70;;;17.60;1.00;;;;;;5094997;28;20416;-72
2022/09/19 12:51:53;;;;;;;1.27;0.70;;;17.20;1.00;;;;;;5094833;28;20537;-75
2022/09/19 12:54:46;;;;;;;1.10;1.00;;;17.00;1.00;;;;;;5094222;28;20429;-75
2022/09/19 12:57:41;;;;;;;1.47;0.63;;;16.70;1.00;;;;;;5094706;28;20844;-72
2022/09/19 13:00:11;;;;;;;0.80;0.60;;;16.60;1.00;;;;;;5094622;28;20415;-73
2022/09/19 13:02:51;;;;;;;1.57;0.80;;;16.60;1.00;;;;;;5075994;28;20416;-72
2022/09/19 13:05:36;;;;;;;0.80;0.60;;;16.50;1.00;;;;;;5075684;28;20838;-75
2022/09/19 13:08:27;;;;;;;2.77;1.77;;;16.40;1.00;;;;;;5094544;28;20399;-75
2022/09/19 13:11:13;;;;;;;0.90;0.63;;;16.40;1.00;;;;;;5094469;28;20435;-75
2022/09/19 13:13:51;;;;;;;1.30;0.80;;;16.30;1.00;;;;;;5093585;28;20971;-75
2022/09/19 13:16:20;;;;;;;0.90;0.70;;;16.30;1.00;;;;;;5094243;28;20431;-75
2022/09/19 13:24:41;;;;;;;1.10;0.70;;;16.90;1.00;;;;;;5093562;28;20403;-75
2022/09/19 13:27:09;;;;;;;1.10;0.70;;;17.50;1.00;;;;;;5094226;28;20408;-75
2022/09/19 13:29:35;;;;;;;1.97;0.70;;;17.80;1.00;;;;;;5093961;28;20399;-72
2022/09/19 13:32:04;;;;;;;1.00;0.80;;;17.70;1.00;;;;;;5094160;28;20503;-71
2022/09/19 13:35:08;;;;;;;2.73;0.70;;;17.60;1.00;;;;;;5093336;28;20700;-75
2022/09/19 13:37:34;;;;;;;1.10;0.70;;;17.30;1.00;;;;;;5081482;28;20427;-75
2022/09/19 13:40:21;;;;;;;1.00;0.70;;;17.20;1.00;;;;;;5093268;28;20387;-76
2022/09/19 13:43:08;;;;;;;0.93;0.70;;;17.00;1.00;;;;;;5093801;28;20176;-74
2022/09/19 13:45:39;;;;;;;2.80;0.73;;;16.80;1.00;;;;;;5093109;28;20454;-75
2022/09/19 13:48:20;;;;;;;1.00;0.70;;;16.70;1.00;;;;;;5093650;28;20821;-74
2022/09/19 13:51:23;;;;;;;1.23;0.93;;;16.50;1.00;;;;;;5093751;28;20403;-71
2022/09/19 13:54:19;;;;;;;1.20;0.90;;;16.40;1.00;;;;;;5079957;28;20945;-75
2022/09/19 13:57:08;;;;;;;1.40;0.63;;;16.20;1.00;;;;;;5057365;28;20470;-70
2022/09/19 13:59:44;;;;;;;1.33;1.00;;;16.10;1.00;;;;;;5079404;28;20451;-70
2022/09/19 14:02:15;;;;;;;2.40;0.80;;;16.00;1.00;;;;;;5093453;28;20387;-70
2022/09/19 14:05:14;;;;;;;3.20;0.80;;;15.90;1.00;;;;;;5092760;28;20403;-72
2022/09/19 14:07:57;;;;;;;1.27;0.90;;;15.80;1.00;;;;;;5066454;28;20407;-75
2022/09/19 14:10:43;;;;;;;1.20;0.90;;;15.50;1.00;;;;;;5093326;28;20473;-75
2022/09/19 14:13:21;;;;;;;1.67;0.90;;;15.30;1.00;;;;;;5093379;28;21072;-74
2022/09/19 14:16:03;;;;;;;1.30;0.80;;;15.10;1.00;;;;;;5092361;28;20479;-71
2022/09/19 14:18:47;;;;;;;7.87;1.20;;;15.10;1.00;;;;;;5093509;28;20975;-74
2022/09/19 14:21:34;;;;;;;1.83;0.90;;;14.90;1.00;;;;;;5098212;28;20473;-72
2022/09/19 14:24:20;;;;;;;3.03;1.30;;;14.60;1.00;;;;;;5092718;28;20494;-75